Time;durP1;ratioP1;P1;durP2;ratioP2;P2;SDS_P1;SDS_P2;PMS_P1;PMS_P2;Temp;Humidity;BMP_temperature;BMP_pressure;BME280_temperature;BME280_humidity;BME280_pressure;Samples;Min_cycle;Max_cycle;Signal;HPM_P1;HPM_P2
2023/06/13 00:00:10;;;;;;;3.53;1.48;;;;;;;17.59;100.00;100389.28;5046978;28;20460;-75
2023/06/13 00:02:39;;;;;;;5.20;1.60;;;;;;;17.58;100.00;100377.94;5045044;28;20423;-75
2023/06/13 00:05:06;;;;;;;2.95;1.73;;;;;;;17.58;100.00;100375.31;5048365;28;20496;-75
2023/06/13 00:07:32;;;;;;;2.60;1.67;;;;;;;17.58;99.01;100369.22;5040829;28;20108;-76
2023/06/13 00:09:58;;;;;;;4.80;1.73;;;;;;;17.57;97.70;100376.31;5047441;28;20033;-76
2023/06/13 00:12:25;;;;;;;2.92;1.75;;;;;;;17.76;90.74;100368.78;5049350;28;20033;-76
2023/06/13 00:14:51;;;;;;;2.92;1.50;;;;;;;17.92;87.55;100372.94;5042158;28;20053;-76
2023/06/13 00:17:18;;;;;;;4.05;1.58;;;;;;;17.95;85.78;100372.53;5040875;28;20041;-76
2023/06/13 00:19:45;;;;;;;3.13;1.48;;;;;;;17.93;86.20;100374.56;5047533;28;20032;-75
2023/06/13 00:22:13;;;;;;;3.72;1.70;;;;;;;17.83;86.81;100365.19;5046655;28;20467;-76
2023/06/13 00:24:41;;;;;;;4.50;1.88;;;;;;;17.78;85.33;100369.41;5045242;28;20058;-76
2023/06/13 00:27:07;;;;;;;2.42;1.42;;;;;;;17.79;85.25;100358.66;5049205;28;20032;-76
2023/06/13 00:29:32;;;;;;;2.95;1.92;;;;;;;17.82;83.14;100357.47;5045649;28;20063;-76
2023/06/13 00:31:57;;;;;;;4.40;1.90;;;;;;;17.83;83.25;100364.38;5049334;28;20102;-76
2023/06/13 00:34:23;;;;;;;2.63;1.90;;;;;;;17.81;82.41;100358.47;5050136;28;20400;-76
2023/06/13 00:36:50;;;;;;;4.80;1.63;;;;;;;17.94;81.45;100350.66;5050936;28;20075;-76
2023/06/13 00:39:15;;;;;;;2.20;1.55;;;;;;;17.98;80.80;100357.13;5044859;28;20029;-76
2023/06/13 00:41:41;;;;;;;2.53;1.77;;;;;;;17.93;81.50;100349.03;5043263;28;20099;-76
2023/06/13 00:44:06;;;;;;;2.95;1.77;;;;;;;17.88;83.88;100346.16;5041653;28;20068;-77
2023/06/13 00:46:34;;;;;;;3.30;1.60;;;;;;;17.79;86.28;100342.84;5046454;28;20041;-77
2023/06/13 00:49:01;;;;;;;4.68;1.70;;;;;;;17.73;89.44;100346.25;5045955;28;20120;-76
2023/06/13 00:51:28;;;;;;;3.05;1.25;;;;;;;17.59;91.96;100353.22;5047825;28;20033;-77
2023/06/13 00:53:56;;;;;;;1.70;1.35;;;;;;;17.51;93.13;100349.94;5046033;28;20037;-77
2023/06/13 00:56:24;;;;;;;2.05;1.75;;;;;;;17.44;92.78;100346.47;5043909;28;20491;-77
2023/06/13 00:58:50;;;;;;;2.10;1.60;;;;;;;17.37;93.44;100343.78;5044764;28;20547;-77
2023/06/13 01:01:19;;;;;;;2.80;1.88;;;;;;;17.32;92.90;100342.72;5045854;28;20048;-76
2023/06/13 01:03:45;;;;;;;5.18;1.50;;;;;;;17.32;91.88;100347.97;5045522;28;20041;-77
2023/06/13 01:06:13;;;;;;;3.80;2.00;;;;;;;17.33;92.34;100339.88;5047269;28;20475;-76
2023/06/13 01:08:40;;;;;;;3.40;1.33;;;;;;;17.31;91.94;100339.28;5045837;28;20037;-76
2023/06/13 01:11:25;;;;;;;6.72;2.05;;;;;;;17.26;92.36;100336.38;5041384;28;20116;-76
2023/06/13 01:14:17;;;;;;;2.97;1.83;;;;;;;17.25;95.22;100326.88;5042398;28;20055;-76
2023/06/13 01:16:54;;;;;;;3.05;2.10;;;;;;;17.25;96.57;100319.78;5039176;28;20118;-76
2023/06/13 01:19:41;;;;;;;1.90;1.63;;;;;;;17.23;98.29;100316.53;5042057;28;20515;-76
2023/06/13 01:22:16;;;;;;;2.33;1.67;;;;;;;17.12;97.14;100316.22;5038696;28;20060;-76
2023/06/13 01:24:59;;;;;;;3.93;1.40;;;;;;;17.08;94.56;100318.41;5041766;28;20029;-76
2023/06/13 01:27:27;;;;;;;3.08;1.83;;;;;;;17.17;95.70;100313.84;5049910;28;20507;-77
2023/06/13 01:29:54;;;;;;;6.90;2.13;;;;;;;17.16;94.59;100309.56;5050707;28;20024;-77
2023/06/13 01:32:22;;;;;;;4.63;1.90;;;;;;;17.19;93.79;100309.19;5051620;28;20568;-77
2023/06/13 01:34:48;;;;;;;3.42;1.90;;;;;;;17.22;94.77;100308.81;5050223;28;20070;-76
2023/06/13 01:37:15;;;;;;;3.08;1.38;;;;;;;17.18;93.15;100312.84;5049830;28;20029;-77
2023/06/13 01:39:41;;;;;;;2.13;1.13;;;;;;;17.34;88.10;100311.75;5050695;28;20097;-76
2023/06/13 01:42:07;;;;;;;3.55;1.30;;;;;;;17.65;82.47;100308.69;5049949;28;20120;-76
2023/06/13 01:44:33;;;;;;;2.53;1.10;;;;;;;17.83;80.98;100306.38;5053458;28;20172;-76
2023/06/13 01:47:12;;;;;;;1.98;1.13;;;;;;;17.84;80.33;100300.09;5054179;28;20499;-76
2023/06/13 01:50:16;;;;;;;2.78;1.77;;;;;;;17.77;79.08;100288.72;5051728;28;20044;-77
2023/06/13 01:52:54;;;;;;;4.65;1.10;;;;;;;17.70;81.38;100290.50;5086189;28;20028;-77
2023/06/13 01:55:36;;;;;;;1.45;1.23;;;;;;;17.65;81.12;100282.34;5085647;28;20048;-76
2023/06/13 01:58:11;;;;;;;2.35;1.20;;;;;;;17.65;84.41;100282.34;5086511;28;20029;-76
2023/06/13 02:00:38;;;;;;;4.15;1.48;;;;;;;17.65;87.08;100275.28;5087081;28;21257;-76
2023/06/13 02:03:04;;;;;;;10.75;1.73;;;;;;;17.62;87.02;100277.44;5092660;28;20409;-76
2023/06/13 02:05:30;;;;;;;3.92;1.33;;;;;;;17.59;85.42;100283.94;5080148;28;20127;-76
2023/06/13 02:07:56;;;;;;;4.38;1.33;;;;;;;17.58;84.96;100269.94;5080901;28;20111;-76
2023/06/13 02:10:22;;;;;;;2.47;1.15;;;;;;;17.51;85.08;100270.91;5082077;28;20062;-76
2023/06/13 02:12:48;;;;;;;3.03;1.50;;;;;;;17.49;85.34;100257.13;5079456;28;20094;-76
2023/06/13 02:15:13;;;;;;;3.33;1.42;;;;;;;17.48;85.07;100263.44;5086629;28;20044;-77
2023/06/13 02:17:40;;;;;;;4.28;1.38;;;;;;;17.49;83.71;100255.28;5085655;28;20042;-77
2023/06/13 02:20:06;;;;;;;3.67;1.40;;;;;;;17.52;83.33;100268.09;5083005;28;20040;-76
2023/06/13 02:22:32;;;;;;;5.32;1.48;;;;;;;17.47;83.12;100253.91;5084049;28;20075;-76
2023/06/13 02:24:59;;;;;;;3.92;1.30;;;;;;;17.45;83.52;100251.47;5081184;28;20058;-76
2023/06/13 02:27:25;;;;;;;4.25;1.33;;;;;;;17.47;84.59;100257.34;5075965;28;20077;-77
2023/06/13 02:29:51;;;;;;;2.78;1.50;;;;;;;17.42;84.80;100256.28;5050362;28;20438;-76
2023/06/13 02:32:18;;;;;;;3.33;1.40;;;;;;;17.44;83.80;100255.09;5052728;28;20112;-77
2023/06/13 02:34:44;;;;;;;5.03;1.40;;;;;;;17.49;82.51;100255.28;5046417;28;20040;-76
2023/06/13 02:37:09;;;;;;;3.38;1.23;;;;;;;17.54;82.59;100249.44;5045964;28;20036;-77
2023/06/13 02:39:34;;;;;;;1.63;1.13;;;;;;;17.56;81.38;100247.44;5045531;28;20047;-78
2023/06/13 02:42:00;;;;;;;3.13;1.30;;;;;;;17.61;80.61;100246.84;5048990;28;20031;-76
2023/06/13 02:44:25;;;;;;;1.85;1.52;;;;;;;17.63;82.79;100248.28;5049954;28;20029;-76
2023/06/13 02:46:51;;;;;;;2.80;1.65;;;;;;;17.60;86.73;100248.66;5050139;28;20120;-77
2023/06/13 02:49:16;;;;;;;2.10;1.65;;;;;;;17.53;90.12;100237.28;5049579;28;20072;-76
2023/06/13 02:51:41;;;;;;;6.63;2.13;;;;;;;17.41;92.64;100241.50;5050139;28;20037;-76
2023/06/13 02:54:07;;;;;;;2.83;1.42;;;;;;;17.17;95.10;100234.88;5050631;28;20029;-76
2023/06/13 02:56:32;;;;;;;2.75;1.73;;;;;;;17.05;96.96;100233.75;5045549;28;20036;-76
2023/06/13 02:58:58;;;;;;;1.95;1.40;;;;;;;16.97;95.78;100236.56;5048240;28;20037;-76
2023/06/13 03:01:23;;;;;;;2.53;1.45;;;;;;;17.07;94.50;100237.00;5050372;28;20036;-76
2023/06/13 03:03:51;;;;;;;7.50;2.22;;;;;;;17.07;97.09;100237.00;5049986;28;20131;-76
2023/06/13 03:06:17;;;;;;;8.00;2.38;;;;;;;17.03;98.88;100236.59;5048900;28;20080;-76
2023/06/13 03:08:44;;;;;;;4.05;1.70;;;;;;;16.98;100.00;100232.94;5047218;28;20095;-76
2023/06/13 03:11:09;;;;;;;1.98;1.67;;;;;;;16.92;100.00;100235.31;5047220;28;20112;-76
2023/06/13 03:13:34;;;;;;;6.50;1.77;;;;;;;16.90;100.00;100226.78;5043390;28;20136;-76
2023/06/13 03:16:02;;;;;;;4.22;2.42;;;;;;;16.90;100.00;100221.53;5049233;28;20033;-76
2023/06/13 03:18:27;;;;;;;3.65;2.40;;;;;;;16.86;100.00;100225.56;5043791;28;20029;-75
2023/06/13 03:20:53;;;;;;;4.80;1.70;;;;;;;16.80;100.00;100221.06;5049056;28;20519;-76
2023/06/13 03:23:18;;;;;;;3.05;2.47;;;;;;;16.74;100.00;100232.31;5049880;28;20060;-76
2023/06/13 03:25:44;;;;;;;3.95;1.98;;;;;;;16.72;100.00;100236.16;5047070;28;20033;-76
2023/06/13 03:28:10;;;;;;;4.20;1.98;;;;;;;16.71;100.00;100232.72;5043917;28;20055;-76
2023/06/13 03:30:36;;;;;;;3.63;2.28;;;;;;;16.68;100.00;100230.44;5045976;28;20036;-76
2023/06/13 03:33:02;;;;;;;3.92;2.15;;;;;;;16.60;100.00;100236.63;5048907;28;20052;-76
2023/06/13 03:35:28;;;;;;;5.10;2.35;;;;;;;16.57;100.00;100246.72;5046998;28;20071;-76
2023/06/13 03:37:53;;;;;;;2.95;2.40;;;;;;;16.53;100.00;100240.22;5049365;28;20040;-76
2023/06/13 03:40:18;;;;;;;5.63;2.33;;;;;;;16.52;100.00;100235.97;5043475;28;20143;-76
2023/06/13 03:42:44;;;;;;;7.80;2.33;;;;;;;16.48;100.00;100237.34;5043388;28;20048;-76
2023/06/13 03:45:10;;;;;;;2.63;1.50;;;;;;;16.57;100.00;100230.94;5047633;28;20367;-76
2023/06/13 03:47:35;;;;;;;6.05;2.00;;;;;;;16.67;100.00;100238.53;5047605;28;20037;-76
2023/06/13 03:50:01;;;;;;;1.40;1.30;;;;;;;16.63;100.00;100240.69;5053463;28;20542;-76
2023/06/13 03:52:26;;;;;;;4.57;2.25;;;;;;;16.71;100.00;100242.41;5048308;28;20533;-76
2023/06/13 03:54:52;;;;;;;5.03;2.20;;;;;;;16.72;100.00;100244.84;5046031;28;20021;-76
2023/06/13 03:57:18;;;;;;;4.05;1.67;;;;;;;16.73;100.00;100245.66;5048844;28;20036;-76
2023/06/13 03:59:43;;;;;;;3.53;1.40;;;;;;;16.71;100.00;100239.78;5046164;28;20071;-77
2023/06/13 04:02:10;;;;;;;4.70;2.10;;;;;;;16.71;100.00;100235.34;5048294;28;20033;-76
2023/06/13 04:04:36;;;;;;;3.38;1.40;;;;;;;16.81;100.00;100233.19;5048926;28;20025;-76
2023/06/13 04:07:05;;;;;;;2.28;1.83;;;;;;;17.00;100.00;100234.38;5045168;28;20033;-76
2023/06/13 04:09:31;;;;;;;2.17;1.88;;;;;;;17.17;100.00;100234.88;5040988;28;20026;-75
2023/06/13 04:11:56;;;;;;;4.32;1.83;;;;;;;17.27;100.00;100226.63;5048113;28;20036;-76
2023/06/13 04:14:22;;;;;;;4.85;1.75;;;;;;;17.40;97.83;100226.72;5040335;28;20078;-75
2023/06/13 04:16:47;;;;;;;3.33;1.08;;;;;;;17.48;93.83;100219.47;5050468;28;20037;-75
2023/06/13 04:19:18;;;;;;;3.33;1.42;;;;;;;17.68;89.27;100213.47;5045390;28;20601;-75
2023/06/13 04:21:46;;;;;;;3.17;1.63;;;;;;;17.89;87.20;100214.19;5047105;28;20142;-75
2023/06/13 04:24:14;;;;;;;5.90;1.52;;;;;;;18.07;86.44;100216.22;5043858;28;20025;-74
2023/06/13 04:26:41;;;;;;;4.32;1.55;;;;;;;18.13;85.52;100212.81;5045511;28;20374;-75
2023/06/13 04:29:08;;;;;;;2.88;1.23;;;;;;;18.20;84.93;100208.38;5051227;28;20055;-74
2023/06/13 04:31:35;;;;;;;4.22;1.48;;;;;;;18.32;85.32;100199.88;5048919;28;20425;-73
2023/06/13 04:34:03;;;;;;;1.55;1.42;;;;;;;18.45;84.89;100202.50;5049505;28;20021;-73
2023/06/13 04:36:32;;;;;;;2.55;1.58;;;;;;;18.47;84.47;100200.47;5047702;28;20488;-74
2023/06/13 04:39:04;;;;;;;5.38;1.15;;;;;;;18.34;84.57;100201.28;5045401;28;20162;-74
2023/06/13 04:41:34;;;;;;;3.92;1.60;;;;;;;18.28;85.47;100201.28;5047849;28;20025;-74
2023/06/13 04:44:00;;;;;;;1.77;1.13;;;;;;;18.35;87.22;100210.00;5044855;28;20453;-73
2023/06/13 04:46:26;;;;;;;6.13;1.92;;;;;;;18.43;90.32;100207.97;5040496;28;20040;-74
2023/06/13 04:48:53;;;;;;;1.85;1.42;;;;;;;18.39;92.38;100200.69;5043573;28;20029;-73
2023/06/13 04:51:21;;;;;;;4.80;1.67;;;;;;;18.38;94.01;100210.44;5047820;28;20170;-73
2023/06/13 04:53:48;;;;;;;2.00;0.98;;;;;;;18.42;96.18;100213.47;5049310;28;20037;-74
2023/06/13 04:56:13;;;;;;;4.65;1.60;;;;;;;18.37;96.47;100205.34;5046148;28;20037;-74
2023/06/13 04:58:38;;;;;;;6.50;2.60;;;;;;;18.32;96.82;100210.41;5050038;28;20039;-74
2023/06/13 05:01:04;;;;;;;4.18;1.98;;;;;;;18.32;97.36;100213.06;5046198;28;20411;-76
2023/06/13 05:03:29;;;;;;;3.22;1.55;;;;;;;18.30;98.63;100215.88;5046433;28;20127;-75
2023/06/13 05:05:55;;;;;;;2.92;1.08;;;;;;;18.28;97.66;100214.47;5050538;28;20029;-76
2023/06/13 05:08:21;;;;;;;2.60;1.30;;;;;;;18.21;92.17;100210.00;5052330;28;20032;-76
2023/06/13 05:10:48;;;;;;;2.20;1.30;;;;;;;18.32;88.62;100224.41;5052442;28;20075;-76
2023/06/13 05:13:13;;;;;;;5.25;1.40;;;;;;;18.40;86.14;100226.88;5045697;28;21054;-76
2023/06/13 05:15:39;;;;;;;2.72;1.40;;;;;;;18.48;84.55;100224.00;5046587;28;21396;-75
2023/06/13 05:18:07;;;;;;;1.80;1.42;;;;;;;18.68;87.40;100220.59;5055427;28;20071;-76
2023/06/13 05:20:33;;;;;;;2.50;1.48;;;;;;;18.83;90.73;100219.38;5046520;28;20036;-76
2023/06/13 05:23:01;;;;;;;3.30;1.38;;;;;;;19.01;91.08;100216.09;5050482;28;20028;-76
2023/06/13 05:25:27;;;;;;;3.22;1.40;;;;;;;19.11;87.76;100203.28;5046337;28;20504;-76
2023/06/13 05:27:53;;;;;;;3.90;1.38;;;;;;;19.15;83.86;100212.44;5046116;28;20405;-76
2023/06/13 05:30:20;;;;;;;3.85;1.05;;;;;;;19.22;81.98;100201.84;5043150;28;20052;-76
2023/06/13 05:32:46;;;;;;;3.13;1.35;;;;;;;19.45;80.76;100204.00;5047011;28;20033;-76
2023/06/13 05:35:12;;;;;;;2.10;1.50;;;;;;;19.71;81.60;100208.44;5047103;28;20029;-76
2023/06/13 05:37:37;;;;;;;4.60;1.08;;;;;;;19.93;81.05;100204.44;5046584;28;20094;-71
2023/06/13 05:40:08;;;;;;;2.88;1.25;;;;;;;20.08;79.02;100212.91;5047551;28;20028;-71
2023/06/13 05:42:35;;;;;;;2.30;1.10;;;;;;;20.13;77.39;100204.34;5039368;28;20041;-71
2023/06/13 05:45:06;;;;;;;2.45;1.00;;;;;;;20.21;76.42;100207.53;5051521;28;20112;-72
2023/06/13 05:47:31;;;;;;;3.25;1.40;;;;;;;20.29;76.13;100197.72;5043078;28;20043;-72
2023/06/13 05:49:57;;;;;;;2.78;1.17;;;;;;;20.46;76.04;100194.34;5049891;28;20159;-71
2023/06/13 05:52:23;;;;;;;1.35;0.70;;;;;;;20.57;75.60;100192.84;5047540;28;20041;-72
2023/06/13 05:54:48;;;;;;;3.67;1.10;;;;;;;20.73;74.06;100194.16;5045723;28;20025;-70
2023/06/13 05:57:15;;;;;;;3.95;1.42;;;;;;;20.94;74.72;100195.56;5053105;28;20129;-70
2023/06/13 05:59:40;;;;;;;2.08;0.98;;;;;;;21.09;74.39;100196.03;5045210;28;20124;-69
2023/06/13 06:02:07;;;;;;;2.35;1.27;;;;;;;20.95;75.48;100194.53;5049282;28;20123;-71
2023/06/13 06:04:32;;;;;;;2.20;1.15;;;;;;;20.70;74.57;100202.53;5048413;28;20048;-70
2023/06/13 06:06:58;;;;;;;5.47;0.70;;;;;;;20.78;73.02;100205.72;5049921;28;20028;-71
2023/06/13 06:09:23;;;;;;;1.95;0.90;;;;;;;20.96;72.47;100201.44;5048724;28;20433;-70
2023/06/13 06:11:50;;;;;;;3.05;0.90;;;;;;;21.13;72.34;100200.69;5042829;28;20115;-70
2023/06/13 06:14:15;;;;;;;1.52;0.80;;;;;;;21.21;70.57;100207.56;5043407;28;20353;-69
2023/06/13 06:16:41;;;;;;;1.98;1.02;;;;;;;21.10;69.50;100205.59;5046350;28;20087;-69
2023/06/13 06:19:06;;;;;;;1.75;0.70;;;;;;;20.94;71.45;100214.09;5041241;28;20060;-69
2023/06/13 06:21:32;;;;;;;1.73;0.90;;;;;;;20.75;71.79;100213.28;5048019;28;20033;-70
2023/06/13 06:23:57;;;;;;;2.05;0.90;;;;;;;20.75;72.42;100213.28;5048004;28;20029;-70
2023/06/13 06:26:23;;;;;;;2.03;0.95;;;;;;;20.78;72.31;100223.44;5046793;28;20037;-70
2023/06/13 06:28:49;;;;;;;3.58;0.93;;;;;;;21.19;71.11;100220.19;5043542;28;20033;-70
2023/06/13 06:31:15;;;;;;;2.17;0.75;;;;;;;21.56;69.11;100223.66;5047833;28;20098;-69
2023/06/13 06:33:40;;;;;;;1.75;0.90;;;;;;;21.73;67.46;100226.53;5049264;28;20400;-70
2023/06/13 06:36:06;;;;;;;1.83;1.00;;;;;;;21.65;67.52;100219.69;5050388;28;20044;-69
2023/06/13 06:38:31;;;;;;;4.65;1.08;;;;;;;21.50;68.52;100229.84;5050421;28;20058;-69
2023/06/13 06:40:56;;;;;;;2.35;0.80;;;;;;;21.32;69.41;100233.28;5051220;28;20089;-68
2023/06/13 06:43:22;;;;;;;5.00;0.90;;;;;;;21.14;70.32;100235.91;5043868;28;20037;-71
2023/06/13 06:45:47;;;;;;;2.63;0.88;;;;;;;20.98;70.36;100247.06;5045911;28;20393;-69
2023/06/13 06:48:13;;;;;;;3.78;1.20;;;;;;;20.78;70.26;100237.47;5050417;28;20071;-69
2023/06/13 06:50:38;;;;;;;2.95;1.08;;;;;;;20.64;70.71;100243.91;5050586;28;20029;-69
2023/06/13 06:53:04;;;;;;;1.48;1.15;;;;;;;20.77;71.15;100241.16;5050824;28;20045;-70
2023/06/13 06:55:30;;;;;;;4.18;0.90;;;;;;;21.20;69.39;100241.16;5049749;28;20040;-69
2023/06/13 06:57:55;;;;;;;2.28;1.27;;;;;;;21.62;67.90;100235.22;5049388;28;20091;-69
2023/06/13 07:00:22;;;;;;;1.88;0.90;;;;;;;21.92;65.47;100244.00;5050960;28;20447;-70
2023/06/13 07:02:48;;;;;;;1.52;1.10;;;;;;;22.12;64.04;100236.63;5044249;28;20057;-70
2023/06/13 07:05:15;;;;;;;2.95;1.13;;;;;;;22.23;62.85;100236.88;5049355;28;20059;-69
2023/06/13 07:07:42;;;;;;;1.85;0.98;;;;;;;21.81;63.65;100240.25;5050941;28;20028;-70
2023/06/13 07:10:08;;;;;;;1.50;0.90;;;;;;;21.48;64.36;100234.56;5050533;28;20045;-69
2023/06/13 07:12:34;;;;;;;1.83;0.90;;;;;;;21.21;63.02;100234.06;5053992;28;20033;-70
2023/06/13 07:15:00;;;;;;;2.83;0.65;;;;;;;21.02;63.70;100235.81;5055874;28;20119;-69
2023/06/13 07:17:25;;;;;;;2.70;0.93;;;;;;;20.79;63.99;100233.81;5049977;28;20116;-69
2023/06/13 07:19:51;;;;;;;3.15;1.25;;;;;;;20.68;65.34;100231.84;5050182;28;20029;-68
2023/06/13 07:22:17;;;;;;;3.40;1.02;;;;;;;20.72;65.37;100237.53;5050495;28;20071;-70
2023/06/13 07:24:42;;;;;;;2.75;0.85;;;;;;;21.04;67.03;100232.97;5046716;28;20493;-70
2023/06/13 07:27:07;;;;;;;1.30;0.75;;;;;;;21.44;65.82;100233.38;5043004;28;20045;-68
2023/06/13 07:29:34;;;;;;;1.70;0.90;;;;;;;21.33;64.22;100232.28;5051266;28;20040;-68
2023/06/13 07:32:03;;;;;;;5.45;1.00;;;;;;;21.23;65.96;100236.47;5045817;28;20449;-68
2023/06/13 07:34:28;;;;;;;4.53;1.00;;;;;;;21.21;67.54;100231.41;5048694;28;20039;-70
2023/06/13 07:36:54;;;;;;;8.63;1.50;;;;;;;21.18;68.29;100232.63;5050345;28;20041;-69
2023/06/13 07:39:20;;;;;;;6.78;1.25;;;;;;;21.24;67.63;100238.09;5049845;28;20537;-69
2023/06/13 07:41:48;;;;;;;1.80;0.82;;;;;;;21.24;67.38;100232.81;5039651;28;20437;-69
2023/06/13 07:44:14;;;;;;;3.72;0.93;;;;;;;21.20;67.12;100227.91;5048663;28;20064;-69
2023/06/13 07:46:39;;;;;;;2.13;0.80;;;;;;;21.20;68.19;100221.81;5048660;28;20069;-69
2023/06/13 07:49:05;;;;;;;1.88;1.10;;;;;;;21.45;68.75;100225.22;5049711;28;20045;-69
2023/06/13 07:51:30;;;;;;;3.17;0.98;;;;;;;21.55;67.33;100223.88;5049360;28;20029;-69
2023/06/13 07:53:56;;;;;;;3.53;1.23;;;;;;;21.59;66.51;100217.91;5048820;28;20024;-69
2023/06/13 07:56:21;;;;;;;5.60;1.10;;;;;;;21.57;65.83;100222.63;5049383;28;20477;-69
2023/06/13 07:58:46;;;;;;;4.28;0.95;;;;;;;21.58;66.26;100218.16;5035877;28;20094;-69
2023/06/13 08:01:12;;;;;;;3.17;1.27;;;;;;;21.70;66.55;100217.19;5043669;28;20033;-69
2023/06/13 08:03:37;;;;;;;3.17;1.10;;;;;;;21.79;66.83;100207.84;5045054;28;20115;-70
2023/06/13 08:06:03;;;;;;;2.65;0.95;;;;;;;21.79;65.71;100220.31;5045921;28;20070;-70
2023/06/13 08:08:29;;;;;;;2.40;1.00;;;;;;;21.91;66.50;100215.88;5043135;28;20050;-70
2023/06/13 08:10:54;;;;;;;3.10;1.35;;;;;;;21.95;66.40;100221.53;5041597;28;20033;-69
2023/06/13 08:13:20;;;;;;;2.45;0.90;;;;;;;22.00;66.79;100217.19;5047625;28;20055;-69
2023/06/13 08:15:45;;;;;;;3.85;1.05;;;;;;;22.10;65.71;100208.72;5042198;28;20119;-69
2023/06/13 08:18:11;;;;;;;1.55;1.10;;;;;;;22.24;66.57;100215.44;5047288;28;20033;-70
2023/06/13 08:20:37;;;;;;;2.40;1.63;;;;;;;22.32;65.87;100211.63;5040747;28;20028;-70
2023/06/13 08:23:03;;;;;;;4.38;1.00;;;;;;;22.38;64.01;100202.78;5047082;28;20078;-70
2023/06/13 08:25:28;;;;;;;5.65;1.05;;;;;;;22.33;63.62;100197.34;5047017;28;20519;-68
2023/06/13 08:27:53;;;;;;;4.80;1.15;;;;;;;22.73;62.96;100203.63;5049843;28;20107;-69
2023/06/13 08:30:19;;;;;;;2.70;0.85;;;;;;;23.18;61.49;100200.38;5048288;28;20067;-69
2023/06/13 08:32:46;;;;;;;2.97;1.33;;;;;;;23.38;59.89;100203.47;5044601;28;20511;-69
2023/06/13 08:35:11;;;;;;;5.78;1.13;;;;;;;23.42;61.43;100199.31;5049153;28;20021;-70
2023/06/13 08:37:40;;;;;;;1.20;0.80;;;;;;;23.45;61.38;100203.34;5044434;28;20127;-70
2023/06/13 08:40:09;;;;;;;1.73;1.33;;;;;;;23.42;61.36;100204.63;5042954;28;20028;-69
2023/06/13 08:42:39;;;;;;;1.80;0.90;;;;;;;23.22;61.08;100209.50;5038760;28;20116;-69
2023/06/13 08:45:07;;;;;;;1.88;0.75;;;;;;;22.82;60.82;100215.53;5046023;28;20067;-70
2023/06/13 08:47:34;;;;;;;2.38;0.80;;;;;;;22.72;62.73;100207.31;5042418;28;20057;-70
2023/06/13 08:50:00;;;;;;;5.88;1.45;;;;;;;22.64;63.96;100212.97;5046245;28;20034;-69
2023/06/13 08:52:29;;;;;;;2.22;1.00;;;;;;;22.57;64.99;100211.47;5038386;28;20040;-69
2023/06/13 08:54:59;;;;;;;2.25;0.70;;;;;;;22.42;63.69;100209.25;5047790;28;20029;-70
2023/06/13 08:57:27;;;;;;;3.78;1.10;;;;;;;22.39;64.63;100213.16;5047934;28;20041;-69
2023/06/13 08:59:53;;;;;;;2.53;0.90;;;;;;;22.26;63.17;100212.53;5048837;28;20033;-69
2023/06/13 09:02:24;;;;;;;1.52;0.75;;;;;;;22.14;61.73;100217.84;5047563;28;20056;-69
2023/06/13 09:04:51;;;;;;;3.10;1.08;;;;;;;21.99;61.72;100220.88;5047302;28;20439;-69
2023/06/13 09:07:17;;;;;;;2.53;0.90;;;;;;;22.03;62.33;100213.31;5043345;28;20063;-69
2023/06/13 09:09:43;;;;;;;1.48;0.90;;;;;;;22.09;60.65;100215.06;5045689;28;20107;-70
2023/06/13 09:12:11;;;;;;;2.83;1.00;;;;;;;22.18;62.27;100219.81;5045443;28;20407;-69
2023/06/13 09:14:38;;;;;;;2.65;1.05;;;;;;;22.26;63.78;100226.63;5043583;28;20374;-70
2023/06/13 09:17:04;;;;;;;1.77;0.98;;;;;;;22.25;64.79;100226.84;5049050;28;20471;-70
2023/06/13 09:19:30;;;;;;;2.28;1.15;;;;;;;22.26;65.77;100223.97;5048582;28;20060;-68
2023/06/13 09:21:56;;;;;;;2.08;1.10;;;;;;;22.22;65.84;100222.00;5043393;28;20024;-69
2023/06/13 09:24:25;;;;;;;3.97;1.23;;;;;;;22.24;66.43;100215.44;5043612;28;20056;-69
2023/06/13 09:26:51;;;;;;;2.03;1.15;;;;;;;22.28;66.71;100219.25;5040915;28;20033;-69
2023/06/13 09:29:17;;;;;;;3.42;1.33;;;;;;;22.21;66.01;100213.25;5046990;28;20400;-70
2023/06/13 09:31:43;;;;;;;7.47;1.38;;;;;;;22.16;65.48;100216.59;5037093;28;20076;-69
2023/06/13 09:34:14;;;;;;;2.15;1.02;;;;;;;22.17;63.59;100218.19;5048434;28;20415;-70
2023/06/13 09:36:40;;;;;;;4.03;1.02;;;;;;;22.11;64.41;100221.75;5043957;28;20025;-69
2023/06/13 09:39:07;;;;;;;2.33;0.93;;;;;;;22.12;65.54;100220.72;5048307;28;20029;-70
2023/06/13 09:41:34;;;;;;;5.10;1.38;;;;;;;22.04;64.43;100217.56;5043234;28;20031;-70
2023/06/13 09:44:04;;;;;;;3.42;0.75;;;;;;;21.90;64.11;100216.09;5052162;28;20053;-70
2023/06/13 09:46:32;;;;;;;4.10;1.52;;;;;;;21.83;63.50;100211.69;5044204;28;20086;-70
2023/06/13 09:48:58;;;;;;;2.10;1.25;;;;;;;21.82;63.83;100210.06;5051076;28;20068;-70
2023/06/13 09:51:27;;;;;;;4.93;1.38;;;;;;;21.81;63.88;100203.13;5043271;28;20033;-69
2023/06/13 09:53:53;;;;;;;2.15;0.70;;;;;;;21.92;64.09;100209.53;5050481;28;20045;-70
2023/06/13 09:56:18;;;;;;;2.88;1.10;;;;;;;21.92;64.16;100206.88;5044561;28;20055;-70
2023/06/13 09:58:43;;;;;;;2.20;1.13;;;;;;;22.05;65.00;100206.72;5048560;28;20028;-70
2023/06/13 10:01:15;;;;;;;2.28;0.90;;;;;;;22.10;63.92;100196.25;5041211;28;20038;-70
2023/06/13 10:03:43;;;;;;;1.65;1.00;;;;;;;22.12;62.90;100201.34;5048160;28;20082;-69
2023/06/13 10:06:10;;;;;;;1.55;1.20;;;;;;;22.33;61.83;100190.19;5046474;28;20103;-69
2023/06/13 10:08:37;;;;;;;3.00;0.90;;;;;;;22.49;59.68;100178.91;5053506;28;20083;-70
2023/06/13 10:11:29;;;;;;;1.48;0.90;;;;;;;22.42;59.44;100174.75;5052865;28;20028;-70
2023/06/13 10:13:56;;;;;;;2.17;1.40;;;;;;;22.40;61.45;100171.50;5047894;28;20044;-69
2023/06/13 10:16:24;;;;;;;3.08;1.10;;;;;;;22.36;59.82;100168.50;5043979;28;20103;-69
2023/06/13 10:18:52;;;;;;;2.95;1.08;;;;;;;22.49;59.98;100164.81;5044162;28;20028;-69
2023/06/13 10:21:21;;;;;;;2.50;1.25;;;;;;;22.65;60.62;100153.53;5044487;28;20037;-70
2023/06/13 10:23:50;;;;;;;3.58;0.98;;;;;;;22.56;59.61;100146.13;5045023;28;20451;-70
2023/06/13 10:26:45;;;;;;;3.65;0.93;;;;;;;22.40;61.14;100139.66;5045966;28;20032;-69
2023/06/13 10:29:14;;;;;;;3.80;0.82;;;;;;;22.42;60.39;100134.91;5048236;28;20049;-69
2023/06/13 10:32:20;;;;;;;4.00;1.08;;;;;;;22.54;60.00;100133.09;5047793;28;20029;-69
2023/06/13 10:34:56;;;;;;;2.30;0.85;;;;;;;22.73;56.53;100123.13;5049648;28;20055;-69
2023/06/13 10:37:30;;;;;;;;;;;;;;;22.46;55.92;100117.50;5048396;28;20040;-69
2023/06/13 10:40:42;;;;;;;5.18;1.30;;;;;;;22.46;54.81;100115.66;5048490;28;20217;-69
2023/06/13 10:43:18;;;;;;;7.85;1.00;;;;;;;22.59;57.06;100098.69;5047876;28;20058;-69
2023/06/13 10:45:44;;;;;;;;;;;;;;;22.50;58.69;100097.41;5030367;28;20041;-69
2023/06/13 10:48:09;;;;;;;3.45;1.00;;;;;;;22.34;58.70;100104.22;5047666;28;19916;-69
2023/06/13 10:50:43;;;;;;;3.15;1.35;;;;;;;22.30;59.24;100105.72;5050750;28;20083;-70
2023/06/13 10:53:22;;;;;;;1.52;1.08;;;;;;;22.53;58.80;100104.94;5049715;28;20119;-69
2023/06/13 10:55:49;;;;;;;1.52;1.17;;;;;;;23.03;58.41;100094.59;5034234;28;20037;-70
2023/06/13 10:58:15;;;;;;;2.15;1.00;;;;;;;23.53;58.60;100098.47;5045082;28;20155;-69
2023/06/13 11:00:40;;;;;;;2.05;0.90;;;;;;;23.87;57.58;100089.53;5050243;28;20041;-70
2023/06/13 11:03:10;;;;;;;5.70;1.38;;;;;;;23.86;55.73;100093.25;5053737;28;20036;-71
2023/06/13 11:05:49;;;;;;;3.70;1.15;;;;;;;23.88;53.21;100088.50;5045983;28;20063;-71
2023/06/13 11:08:18;;;;;;;4.13;1.00;;;;;;;23.73;54.64;100085.56;5049192;28;20075;-71
2023/06/13 11:10:45;;;;;;;3.42;0.98;;;;;;;23.88;53.95;100082.34;5043892;28;20056;-71
2023/06/13 11:13:24;;;;;;;4.63;1.30;;;;;;;24.16;53.90;100083.06;5038179;28;20029;-70
2023/06/13 11:15:53;;;;;;;1.73;1.08;;;;;;;24.38;54.18;100085.84;5043946;28;20029;-70
2023/06/13 11:18:19;;;;;;;3.08;1.10;;;;;;;24.41;54.07;100073.91;5048289;28;20037;-69
2023/06/13 11:20:58;;;;;;;2.30;1.17;;;;;;;24.55;55.65;100080.50;5045824;28;20033;-71
2023/06/13 11:23:37;;;;;;;1.77;1.25;;;;;;;24.65;53.39;100069.16;5045606;28;20041;-70
2023/06/13 11:26:04;;;;;;;4.20;1.00;;;;;;;24.52;54.43;100066.88;5040281;28;20023;-70